sensor_id;sensor_type;location;lat;lon;timestamp;temperature;humidity
3298;DHT22;1661;53.572;10.174;2024-03-17T00:02:08;6.90;81.70
3298;DHT22;1661;53.572;10.174;2024-03-17T00:04:34;6.90;81.60
3298;DHT22;1661;53.572;10.174;2024-03-17T00:07:02;6.90;81.60
3298;DHT22;1661;53.572;10.174;2024-03-17T00:09:29;6.80;81.70
3298;DHT22;1661;53.572;10.174;2024-03-17T00:11:55;6.80;81.60
3298;DHT22;1661;53.572;10.174;2024-03-17T00:14:21;6.80;81.50
3298;DHT22;1661;53.572;10.174;2024-03-17T00:16:48;6.80;81.80
3298;DHT22;1661;53.572;10.174;2024-03-17T00:19:14;6.80;81.90
3298;DHT22;1661;53.572;10.174;2024-03-17T00:21:42;6.80;81.80
3298;DHT22;1661;53.572;10.174;2024-03-17T00:24:09;6.80;81.70
3298;DHT22;1661;53.572;10.174;2024-03-17T00:26:36;6.80;81.60
3298;DHT22;1661;53.572;10.174;2024-03-17T00:29:02;6.80;81.60
3298;DHT22;1661;53.572;10.174;2024-03-17T00:31:29;6.80;81.50
3298;DHT22;1661;53.572;10.174;2024-03-17T00:33:55;6.80;81.50
3298;DHT22;1661;53.572;10.174;2024-03-17T00:36:21;6.80;81.50
3298;DHT22;1661;53.572;10.174;2024-03-17T00:38:47;6.80;81.50
3298;DHT22;1661;53.572;10.174;2024-03-17T00:41:16;6.70;81.60
3298;DHT22;1661;53.572;10.174;2024-03-17T00:43:41;6.80;81.60
3298;DHT22;1661;53.572;10.174;2024-03-17T00:46:08;6.80;81.40
3298;DHT22;1661;53.572;10.174;2024-03-17T00:48:34;6.70;81.40
3298;DHT22;1661;53.572;10.174;2024-03-17T00:51:01;6.70;81.40
3298;DHT22;1661;53.572;10.174;2024-03-17T00:53:28;6.70;81.50
3298;DHT22;1661;53.572;10.174;2024-03-17T00:55:55;6.70;81.50
3298;DHT22;1661;53.572;10.174;2024-03-17T00:58:25;6.70;81.70
3298;DHT22;1661;53.572;10.174;2024-03-17T01:00:51;6.70;81.90
3298;DHT22;1661;53.572;10.174;2024-03-17T01:03:18;6.70;82.00
3298;DHT22;1661;53.572;10.174;2024-03-17T01:05:45;6.70;82.00
3298;DHT22;1661;53.572;10.174;2024-03-17T01:08:13;6.70;82.10
3298;DHT22;1661;53.572;10.174;2024-03-17T01:10:40;6.70;82.30
3298;DHT22;1661;53.572;10.174;2024-03-17T01:13:07;6.70;82.30
3298;DHT22;1661;53.572;10.174;2024-03-17T01:15:36;6.70;82.30
3298;DHT22;1661;53.572;10.174;2024-03-17T01:18:03;6.70;82.30
3298;DHT22;1661;53.572;10.174;2024-03-17T01:20:30;6.70;82.40
3298;DHT22;1661;53.572;10.174;2024-03-17T01:22:56;6.80;82.50
3298;DHT22;1661;53.572;10.174;2024-03-17T01:25:23;6.80;82.50
3298;DHT22;1661;53.572;10.174;2024-03-17T01:27:51;6.80;82.40
3298;DHT22;1661;53.572;10.174;2024-03-17T01:30:18;6.80;82.40
3298;DHT22;1661;53.572;10.174;2024-03-17T01:32:46;6.80;82.20
3298;DHT22;1661;53.572;10.174;2024-03-17T01:35:13;6.80;82.20
3298;DHT22;1661;53.572;10.174;2024-03-17T01:37:39;6.80;82.10
3298;DHT22;1661;53.572;10.174;2024-03-17T01:40:07;6.80;81.90
3298;DHT22;1661;53.572;10.174;2024-03-17T01:42:34;6.80;81.80
3298;DHT22;1661;53.572;10.174;2024-03-17T01:45:01;6.80;81.60
3298;DHT22;1661;53.572;10.174;2024-03-17T01:47:45;6.70;81.70
3298;DHT22;1661;53.572;10.174;2024-03-17T01:50:12;6.70;81.80
3298;DHT22;1661;53.572;10.174;2024-03-17T01:52:39;6.70;81.80
3298;DHT22;1661;53.572;10.174;2024-03-17T01:55:06;6.70;81.70
3298;DHT22;1661;53.572;10.174;2024-03-17T01:57:33;6.60;81.80
3298;DHT22;1661;53.572;10.174;2024-03-17T02:00:00;6.60;81.80
3298;DHT22;1661;53.572;10.174;2024-03-17T02:02:26;6.50;81.90
3298;DHT22;1661;53.572;10.174;2024-03-17T02:04:54;6.50;82.00
3298;DHT22;1661;53.572;10.174;2024-03-17T02:07:20;6.50;82.00
3298;DHT22;1661;53.572;10.174;2024-03-17T02:09:46;6.50;82.10
3298;DHT22;1661;53.572;10.174;2024-03-17T02:12:12;6.50;82.20
3298;DHT22;1661;53.572;10.174;2024-03-17T02:14:39;6.50;82.20
3298;DHT22;1661;53.572;10.174;2024-03-17T02:17:05;6.50;82.10
3298;DHT22;1661;53.572;10.174;2024-03-17T02:19:32;6.50;82.10
3298;DHT22;1661;53.572;10.174;2024-03-17T02:21:59;6.50;82.10
3298;DHT22;1661;53.572;10.174;2024-03-17T02:24:27;6.50;82.00
3298;DHT22;1661;53.572;10.174;2024-03-17T02:26:53;6.50;81.90
3298;DHT22;1661;53.572;10.174;2024-03-17T02:29:20;6.50;81.90
3298;DHT22;1661;53.572;10.174;2024-03-17T02:31:45;6.50;81.90
3298;DHT22;1661;53.572;10.174;2024-03-17T02:34:12;6.50;81.90
3298;DHT22;1661;53.572;10.174;2024-03-17T02:36:38;6.50;81.80
3298;DHT22;1661;53.572;10.174;2024-03-17T02:39:05;6.50;81.70
3298;DHT22;1661;53.572;10.174;2024-03-17T02:41:56;6.40;81.80
3298;DHT22;1661;53.572;10.174;2024-03-17T02:44:23;6.40;81.80
3298;DHT22;1661;53.572;10.174;2024-03-17T02:46:51;6.40;81.90
3298;DHT22;1661;53.572;10.174;2024-03-17T02:49:18;6.40;81.90
3298;DHT22;1661;53.572;10.174;2024-03-17T02:51:44;6.30;81.90
3298;DHT22;1661;53.572;10.174;2024-03-17T02:54:11;6.30;81.90
3298;DHT22;1661;53.572;10.174;2024-03-17T02:56:38;6.30;81.80
3298;DHT22;1661;53.572;10.174;2024-03-17T02:59:06;6.30;81.90
3298;DHT22;1661;53.572;10.174;2024-03-17T03:01:33;6.30;81.90
3298;DHT22;1661;53.572;10.174;2024-03-17T03:04:00;6.30;82.00
3298;DHT22;1661;53.572;10.174;2024-03-17T03:06:27;6.20;82.00
3298;DHT22;1661;53.572;10.174;2024-03-17T03:08:53;6.20;81.90
3298;DHT22;1661;53.572;10.174;2024-03-17T03:11:20;6.20;81.70
3298;DHT22;1661;53.572;10.174;2024-03-17T03:13:47;6.20;81.90
3298;DHT22;1661;53.572;10.174;2024-03-17T03:16:15;6.10;81.90
3298;DHT22;1661;53.572;10.174;2024-03-17T03:18:44;6.10;81.90
3298;DHT22;1661;53.572;10.174;2024-03-17T03:21:11;6.10;81.80
3298;DHT22;1661;53.572;10.174;2024-03-17T03:23:38;6.10;81.70
3298;DHT22;1661;53.572;10.174;2024-03-17T03:26:05;6.00;81.70
3298;DHT22;1661;53.572;10.174;2024-03-17T03:28:35;6.00;81.80
3298;DHT22;1661;53.572;10.174;2024-03-17T03:31:02;5.90;81.70
3298;DHT22;1661;53.572;10.174;2024-03-17T03:33:30;5.90;81.50
3298;DHT22;1661;53.572;10.174;2024-03-17T03:35:57;5.90;81.50
3298;DHT22;1661;53.572;10.174;2024-03-17T03:38:24;5.80;81.40
3298;DHT22;1661;53.572;10.174;2024-03-17T03:40:51;5.80;81.40
3298;DHT22;1661;53.572;10.174;2024-03-17T03:43:18;5.70;81.40
3298;DHT22;1661;53.572;10.174;2024-03-17T03:45:45;5.70;81.20
3298;DHT22;1661;53.572;10.174;2024-03-17T03:48:12;5.60;81.20
3298;DHT22;1661;53.572;10.174;2024-03-17T03:50:40;5.60;81.20
3298;DHT22;1661;53.572;10.174;2024-03-17T03:53:07;5.60;81.40
3298;DHT22;1661;53.572;10.174;2024-03-17T03:55:34;5.60;81.90
3298;DHT22;1661;53.572;10.174;2024-03-17T03:58:01;5.50;81.90
3298;DHT22;1661;53.572;10.174;2024-03-17T04:00:29;5.50;81.80
3298;DHT22;1661;53.572;10.174;2024-03-17T04:02:58;5.50;81.60
3298;DHT22;1661;53.572;10.174;2024-03-17T04:05:25;5.50;81.60
3298;DHT22;1661;53.572;10.174;2024-03-17T04:07:53;5.40;81.60
3298;DHT22;1661;53.572;10.174;2024-03-17T04:10:20;5.40;81.70
3298;DHT22;1661;53.572;10.174;2024-03-17T04:12:48;5.40;81.60
3298;DHT22;1661;53.572;10.174;2024-03-17T04:15:15;5.30;81.50
3298;DHT22;1661;53.572;10.174;2024-03-17T04:17:42;5.30;81.40
3298;DHT22;1661;53.572;10.174;2024-03-17T04:20:09;5.20;81.60
3298;DHT22;1661;53.572;10.174;2024-03-17T04:22:39;5.20;81.60
3298;DHT22;1661;53.572;10.174;2024-03-17T04:25:08;5.20;81.70
3298;DHT22;1661;53.572;10.174;2024-03-17T04:27:35;5.10;81.90
3298;DHT22;1661;53.572;10.174;2024-03-17T04:30:02;5.10;81.90
3298;DHT22;1661;53.572;10.174;2024-03-17T04:32:31;5.10;82.20
3298;DHT22;1661;53.572;10.174;2024-03-17T04:34:58;5.10;82.30
3298;DHT22;1661;53.572;10.174;2024-03-17T04:37:25;5.10;82.60
3298;DHT22;1661;53.572;10.174;2024-03-17T04:39:52;5.10;82.80
3298;DHT22;1661;53.572;10.174;2024-03-17T04:42:24;5.10;83.00
3298;DHT22;1661;53.572;10.174;2024-03-17T04:44:51;5.10;83.20
3298;DHT22;1661;53.572;10.174;2024-03-17T04:47:18;5.10;83.30
3298;DHT22;1661;53.572;10.174;2024-03-17T04:49:45;5.10;83.40
3298;DHT22;1661;53.572;10.174;2024-03-17T04:52:13;5.10;83.50
3298;DHT22;1661;53.572;10.174;2024-03-17T04:54:42;5.10;83.50
3298;DHT22;1661;53.572;10.174;2024-03-17T04:57:09;5.20;83.50
3298;DHT22;1661;53.572;10.174;2024-03-17T04:59:37;5.20;83.50
3298;DHT22;1661;53.572;10.174;2024-03-17T05:02:04;5.20;83.50
3298;DHT22;1661;53.572;10.174;2024-03-17T05:04:31;5.20;83.40
3298;DHT22;1661;53.572;10.174;2024-03-17T05:06:58;5.20;83.40
3298;DHT22;1661;53.572;10.174;2024-03-17T05:09:25;5.20;83.30
3298;DHT22;1661;53.572;10.174;2024-03-17T05:11:52;5.20;83.20
3298;DHT22;1661;53.572;10.174;2024-03-17T05:14:19;5.20;83.20
3298;DHT22;1661;53.572;10.174;2024-03-17T05:16:49;5.20;83.30
3298;DHT22;1661;53.572;10.174;2024-03-17T05:19:16;5.20;83.20
3298;DHT22;1661;53.572;10.174;2024-03-17T05:21:44;5.20;83.10
3298;DHT22;1661;53.572;10.174;2024-03-17T05:24:11;5.20;83.00
3298;DHT22;1661;53.572;10.174;2024-03-17T05:26:38;5.10;83.00
3298;DHT22;1661;53.572;10.174;2024-03-17T05:29:05;5.10;82.90
3298;DHT22;1661;53.572;10.174;2024-03-17T05:31:32;5.10;82.90
3298;DHT22;1661;53.572;10.174;2024-03-17T05:34:00;5.10;83.00
3298;DHT22;1661;53.572;10.174;2024-03-17T05:36:27;5.10;83.00
3298;DHT22;1661;53.572;10.174;2024-03-17T05:38:58;5.10;83.00
3298;DHT22;1661;53.572;10.174;2024-03-17T05:41:24;5.10;83.10
3298;DHT22;1661;53.572;10.174;2024-03-17T05:43:52;5.10;83.10
3298;DHT22;1661;53.572;10.174;2024-03-17T05:46:18;5.10;83.20
3298;DHT22;1661;53.572;10.174;2024-03-17T05:48:45;5.10;83.20
3298;DHT22;1661;53.572;10.174;2024-03-17T05:51:13;5.00;83.20
3298;DHT22;1661;53.572;10.174;2024-03-17T05:53:41;5.00;83.10
3298;DHT22;1661;53.572;10.174;2024-03-17T05:56:10;5.00;83.00
3298;DHT22;1661;53.572;10.174;2024-03-17T05:58:38;5.00;82.90
3298;DHT22;1661;53.572;10.174;2024-03-17T06:01:05;5.00;82.90
3298;DHT22;1661;53.572;10.174;2024-03-17T06:03:33;4.90;82.90
3298;DHT22;1661;53.572;10.174;2024-03-17T06:06:01;4.90;82.80
3298;DHT22;1661;53.572;10.174;2024-03-17T06:08:30;4.90;82.90
3298;DHT22;1661;53.572;10.174;2024-03-17T06:10:57;4.90;82.90
3298;DHT22;1661;53.572;10.174;2024-03-17T06:13:25;4.90;82.90
3298;DHT22;1661;53.572;10.174;2024-03-17T06:15:53;4.90;83.00
3298;DHT22;1661;53.572;10.174;2024-03-17T06:18:20;4.90;83.20
3298;DHT22;1661;53.572;10.174;2024-03-17T06:20:49;5.00;83.30
3298;DHT22;1661;53.572;10.174;2024-03-17T06:23:16;5.00;83.20
3298;DHT22;1661;53.572;10.174;2024-03-17T06:25:45;5.10;83.30
3298;DHT22;1661;53.572;10.174;2024-03-17T06:28:12;5.10;83.40
3298;DHT22;1661;53.572;10.174;2024-03-17T06:30:39;5.20;83.30
3298;DHT22;1661;53.572;10.174;2024-03-17T06:33:07;5.20;83.20
3298;DHT22;1661;53.572;10.174;2024-03-17T06:35:36;5.30;83.00
3298;DHT22;1661;53.572;10.174;2024-03-17T06:38:03;5.40;83.10
3298;DHT22;1661;53.572;10.174;2024-03-17T06:40:30;5.50;82.90
3298;DHT22;1661;53.572;10.174;2024-03-17T06:42:58;5.60;82.60
3298;DHT22;1661;53.572;10.174;2024-03-17T06:45:25;5.70;82.50
3298;DHT22;1661;53.572;10.174;2024-03-17T06:47:52;5.80;82.80
3298;DHT22;1661;53.572;10.174;2024-03-17T06:50:20;5.90;82.80
3298;DHT22;1661;53.572;10.174;2024-03-17T06:52:47;6.00;82.90
3298;DHT22;1661;53.572;10.174;2024-03-17T06:55:14;6.20;83.20
3298;DHT22;1661;53.572;10.174;2024-03-17T06:57:42;6.30;83.30
3298;DHT22;1661;53.572;10.174;2024-03-17T07:00:12;6.40;83.30
3298;DHT22;1661;53.572;10.174;2024-03-17T07:02:41;6.50;83.10
3298;DHT22;1661;53.572;10.174;2024-03-17T07:05:11;6.70;83.10
3298;DHT22;1661;53.572;10.174;2024-03-17T07:07:39;6.80;83.20
3298;DHT22;1661;53.572;10.174;2024-03-17T07:10:07;6.90;83.20
3298;DHT22;1661;53.572;10.174;2024-03-17T07:12:34;7.00;83.10
3298;DHT22;1661;53.572;10.174;2024-03-17T07:15:01;7.10;82.80
3298;DHT22;1661;53.572;10.174;2024-03-17T07:17:29;7.30;82.50
3298;DHT22;1661;53.572;10.174;2024-03-17T07:19:56;7.40;82.20
3298;DHT22;1661;53.572;10.174;2024-03-17T07:22:23;7.50;82.10
3298;DHT22;1661;53.572;10.174;2024-03-17T07:24:51;7.70;81.90
3298;DHT22;1661;53.572;10.174;2024-03-17T07:27:21;7.70;81.50
3298;DHT22;1661;53.572;10.174;2024-03-17T07:29:48;7.80;80.80
3298;DHT22;1661;53.572;10.174;2024-03-17T07:32:15;7.90;80.60
3298;DHT22;1661;53.572;10.174;2024-03-17T07:34:43;8.00;80.00
3298;DHT22;1661;53.572;10.174;2024-03-17T07:37:10;8.10;79.90
3298;DHT22;1661;53.572;10.174;2024-03-17T07:39:36;8.10;78.60
3298;DHT22;1661;53.572;10.174;2024-03-17T07:42:03;8.20;78.40
3298;DHT22;1661;53.572;10.174;2024-03-17T07:44:30;8.30;78.60
3298;DHT22;1661;53.572;10.174;2024-03-17T07:46:59;8.40;77.20
3298;DHT22;1661;53.572;10.174;2024-03-17T07:49:26;8.40;76.00
3298;DHT22;1661;53.572;10.174;2024-03-17T07:51:54;8.50;75.60
3298;DHT22;1661;53.572;10.174;2024-03-17T07:54:23;8.50;75.00
3298;DHT22;1661;53.572;10.174;2024-03-17T07:56:50;8.70;75.90
3298;DHT22;1661;53.572;10.174;2024-03-17T07:59:17;8.80;73.80
3298;DHT22;1661;53.572;10.174;2024-03-17T08:01:44;8.90;72.60
3298;DHT22;1661;53.572;10.174;2024-03-17T08:04:11;9.10;73.00
3298;DHT22;1661;53.572;10.174;2024-03-17T08:06:38;9.00;68.30
3298;DHT22;1661;53.572;10.174;2024-03-17T08:09:07;9.10;69.50
3298;DHT22;1661;53.572;10.174;2024-03-17T08:11:34;9.30;70.60
3298;DHT22;1661;53.572;10.174;2024-03-17T08:14:01;9.40;69.10
3298;DHT22;1661;53.572;10.174;2024-03-17T08:16:28;9.40;67.70
3298;DHT22;1661;53.572;10.174;2024-03-17T08:18:55;9.60;67.70
3298;DHT22;1661;53.572;10.174;2024-03-17T08:21:22;9.70;66.30
3298;DHT22;1661;53.572;10.174;2024-03-17T08:23:50;9.90;65.10
3298;DHT22;1661;53.572;10.174;2024-03-17T08:26:18;10.00;63.60
3298;DHT22;1661;53.572;10.174;2024-03-17T08:28:45;10.20;63.20
3298;DHT22;1661;53.572;10.174;2024-03-17T08:31:13;10.40;64.00
3298;DHT22;1661;53.572;10.174;2024-03-17T08:33:41;10.50;61.30
3298;DHT22;1661;53.572;10.174;2024-03-17T08:36:09;10.70;62.10
3298;DHT22;1661;53.572;10.174;2024-03-17T08:38:37;10.50;60.00
3298;DHT22;1661;53.572;10.174;2024-03-17T08:41:05;10.20;62.00
3298;DHT22;1661;53.572;10.174;2024-03-17T08:43:34;10.30;59.70
3298;DHT22;1661;53.572;10.174;2024-03-17T08:46:02;10.60;61.50
3298;DHT22;1661;53.572;10.174;2024-03-17T08:48:31;10.80;60.10
3298;DHT22;1661;53.572;10.174;2024-03-17T08:50:59;11.00;60.50
3298;DHT22;1661;53.572;10.174;2024-03-17T08:53:27;11.00;59.10
3298;DHT22;1661;53.572;10.174;2024-03-17T08:55:54;11.00;61.10
3298;DHT22;1661;53.572;10.174;2024-03-17T08:58:21;11.10;60.80
3298;DHT22;1661;53.572;10.174;2024-03-17T09:00:50;11.30;60.20
3298;DHT22;1661;53.572;10.174;2024-03-17T09:03:17;11.60;59.40
3298;DHT22;1661;53.572;10.174;2024-03-17T09:05:46;11.90;57.70
3298;DHT22;1661;53.572;10.174;2024-03-17T09:08:16;12.20;59.10
3298;DHT22;1661;53.572;10.174;2024-03-17T09:10:46;12.30;57.90
3298;DHT22;1661;53.572;10.174;2024-03-17T09:13:14;12.50;58.10
3298;DHT22;1661;53.572;10.174;2024-03-17T09:15:50;12.60;58.50
3298;DHT22;1661;53.572;10.174;2024-03-17T09:18:17;12.70;57.00
3298;DHT22;1661;53.572;10.174;2024-03-17T09:20:44;12.90;56.00
3298;DHT22;1661;53.572;10.174;2024-03-17T09:23:11;13.00;56.20
3298;DHT22;1661;53.572;10.174;2024-03-17T09:25:38;13.10;55.40
3298;DHT22;1661;53.572;10.174;2024-03-17T09:28:05;13.10;56.80
3298;DHT22;1661;53.572;10.174;2024-03-17T09:30:31;13.10;55.20
3298;DHT22;1661;53.572;10.174;2024-03-17T09:33:00;13.20;59.40
3298;DHT22;1661;53.572;10.174;2024-03-17T09:35:27;13.50;56.70
3298;DHT22;1661;53.572;10.174;2024-03-17T09:37:54;13.60;58.00
3298;DHT22;1661;53.572;10.174;2024-03-17T09:40:21;13.80;56.00
3298;DHT22;1661;53.572;10.174;2024-03-17T09:42:47;14.00;56.40
3298;DHT22;1661;53.572;10.174;2024-03-17T09:45:15;14.20;55.60
3298;DHT22;1661;53.572;10.174;2024-03-17T09:47:43;14.50;56.80
3298;DHT22;1661;53.572;10.174;2024-03-17T09:50:13;14.50;54.20
3298;DHT22;1661;53.572;10.174;2024-03-17T09:52:42;14.60;55.80
3298;DHT22;1661;53.572;10.174;2024-03-17T09:55:12;14.80;55.20
3298;DHT22;1661;53.572;10.174;2024-03-17T09:57:42;15.00;53.50
3298;DHT22;1661;53.572;10.174;2024-03-17T10:00:11;15.00;51.10
3298;DHT22;1661;53.572;10.174;2024-03-17T10:02:42;15.00;51.70
3298;DHT22;1661;53.572;10.174;2024-03-17T10:05:21;15.00;52.30
3298;DHT22;1661;53.572;10.174;2024-03-17T10:07:48;15.00;54.10
3298;DHT22;1661;53.572;10.174;2024-03-17T10:10:16;15.10;56.10
3298;DHT22;1661;53.572;10.174;2024-03-17T10:12:47;15.10;52.50
3298;DHT22;1661;53.572;10.174;2024-03-17T10:15:15;15.20;56.10
3298;DHT22;1661;53.572;10.174;2024-03-17T10:17:42;15.50;55.00
3298;DHT22;1661;53.572;10.174;2024-03-17T10:20:13;15.80;54.20
3298;DHT22;1661;53.572;10.174;2024-03-17T10:22:57;16.00;53.60
3298;DHT22;1661;53.572;10.174;2024-03-17T10:25:25;16.10;53.90
3298;DHT22;1661;53.572;10.174;2024-03-17T10:27:52;16.20;51.60
3298;DHT22;1661;53.572;10.174;2024-03-17T10:30:19;16.30;51.20
3298;DHT22;1661;53.572;10.174;2024-03-17T10:32:52;16.40;51.40
3298;DHT22;1661;53.572;10.174;2024-03-17T10:35:27;16.60;55.30
3298;DHT22;1661;53.572;10.174;2024-03-17T10:37:56;16.80;50.70
3298;DHT22;1661;53.572;10.174;2024-03-17T10:40:24;16.80;51.30
3298;DHT22;1661;53.572;10.174;2024-03-17T10:42:52;16.20;49.60
3298;DHT22;1661;53.572;10.174;2024-03-17T10:45:19;16.10;49.30
3298;DHT22;1661;53.572;10.174;2024-03-17T10:47:48;15.60;46.00
3298;DHT22;1661;53.572;10.174;2024-03-17T10:50:17;15.20;48.00
3298;DHT22;1661;53.572;10.174;2024-03-17T10:52:46;15.30;50.30
3298;DHT22;1661;53.572;10.174;2024-03-17T10:55:22;15.50;53.60
3298;DHT22;1661;53.572;10.174;2024-03-17T10:57:50;15.40;54.60
3298;DHT22;1661;53.572;10.174;2024-03-17T11:00:18;15.40;55.60
3298;DHT22;1661;53.572;10.174;2024-03-17T11:02:48;15.40;52.70
3298;DHT22;1661;53.572;10.174;2024-03-17T11:05:18;15.50;56.10
3298;DHT22;1661;53.572;10.174;2024-03-17T11:07:47;15.70;52.90
3298;DHT22;1661;53.572;10.174;2024-03-17T11:10:21;15.70;53.80
3298;DHT22;1661;53.572;10.174;2024-03-17T11:12:50;15.80;51.90
3298;DHT22;1661;53.572;10.174;2024-03-17T11:15:36;16.10;52.50
3298;DHT22;1661;53.572;10.174;2024-03-17T11:18:36;16.40;52.00
3298;DHT22;1661;53.572;10.174;2024-03-17T11:21:06;16.60;45.00
3298;DHT22;1661;53.572;10.174;2024-03-17T11:23:40;16.80;52.30
3298;DHT22;1661;53.572;10.174;2024-03-17T11:26:09;16.90;50.40
3298;DHT22;1661;53.572;10.174;2024-03-17T11:28:50;17.00;50.00
3298;DHT22;1661;53.572;10.174;2024-03-17T11:31:40;17.20;46.50
3298;DHT22;1661;53.572;10.174;2024-03-17T11:34:35;17.30;48.80
3298;DHT22;1661;53.572;10.174;2024-03-17T11:37:05;17.40;47.50
3298;DHT22;1661;53.572;10.174;2024-03-17T11:39:54;16.70;41.10
3298;DHT22;1661;53.572;10.174;2024-03-17T11:42:26;16.50;50.10
3298;DHT22;1661;53.572;10.174;2024-03-17T11:45:01;16.50;50.30
3298;DHT22;1661;53.572;10.174;2024-03-17T11:47:35;16.60;51.40
3298;DHT22;1661;53.572;10.174;2024-03-17T11:50:06;16.70;48.60
3298;DHT22;1661;53.572;10.174;2024-03-17T11:52:34;16.80;48.80
3298;DHT22;1661;53.572;10.174;2024-03-17T11:54:59;16.70;44.60
3298;DHT22;1661;53.572;10.174;2024-03-17T11:57:28;16.30;48.60
3298;DHT22;1661;53.572;10.174;2024-03-17T11:59:55;16.10;48.90
3298;DHT22;1661;53.572;10.174;2024-03-17T12:02:24;16.30;49.50
3298;DHT22;1661;53.572;10.174;2024-03-17T12:04:52;16.50;48.60
3298;DHT22;1661;53.572;10.174;2024-03-17T12:07:19;16.50;47.90
3298;DHT22;1661;53.572;10.174;2024-03-17T12:09:49;16.50;44.90
3298;DHT22;1661;53.572;10.174;2024-03-17T12:12:17;16.30;46.50
3298;DHT22;1661;53.572;10.174;2024-03-17T12:14:46;16.40;46.00
3298;DHT22;1661;53.572;10.174;2024-03-17T12:17:15;16.50;48.80
3298;DHT22;1661;53.572;10.174;2024-03-17T12:19:45;16.50;48.60
3298;DHT22;1661;53.572;10.174;2024-03-17T12:22:16;16.60;47.90
3298;DHT22;1661;53.572;10.174;2024-03-17T12:24:44;16.90;50.30
3298;DHT22;1661;53.572;10.174;2024-03-17T12:27:17;17.10;46.90
3298;DHT22;1661;53.572;10.174;2024-03-17T12:29:43;17.30;47.90
3298;DHT22;1661;53.572;10.174;2024-03-17T12:32:13;17.60;46.60
3298;DHT22;1661;53.572;10.174;2024-03-17T12:34:39;17.80;48.10
3298;DHT22;1661;53.572;10.174;2024-03-17T12:37:07;18.00;46.40
3298;DHT22;1661;53.572;10.174;2024-03-17T12:39:33;18.30;45.20
3298;DHT22;1661;53.572;10.174;2024-03-17T12:42:02;18.40;42.90
3298;DHT22;1661;53.572;10.174;2024-03-17T12:44:28;18.40;41.20
3298;DHT22;1661;53.572;10.174;2024-03-17T12:46:55;18.50;45.20
3298;DHT22;1661;53.572;10.174;2024-03-17T12:49:23;18.60;45.00
3298;DHT22;1661;53.572;10.174;2024-03-17T12:51:53;18.70;42.90
3298;DHT22;1661;53.572;10.174;2024-03-17T12:54:21;18.80;41.10
3298;DHT22;1661;53.572;10.174;2024-03-17T12:56:50;18.80;41.10
3298;DHT22;1661;53.572;10.174;2024-03-17T12:59:42;18.90;44.80
3298;DHT22;1661;53.572;10.174;2024-03-17T13:02:26;19.00;39.80
3298;DHT22;1661;53.572;10.174;2024-03-17T13:05:13;18.70;38.90
3298;DHT22;1661;53.572;10.174;2024-03-17T13:07:40;18.60;39.80
3298;DHT22;1661;53.572;10.174;2024-03-17T13:10:08;18.60;43.10
3298;DHT22;1661;53.572;10.174;2024-03-17T13:12:35;18.70;41.40
3298;DHT22;1661;53.572;10.174;2024-03-17T13:15:01;18.80;46.80
3298;DHT22;1661;53.572;10.174;2024-03-17T13:17:28;18.90;44.60
3298;DHT22;1661;53.572;10.174;2024-03-17T13:19:56;19.10;45.30
3298;DHT22;1661;53.572;10.174;2024-03-17T13:22:24;19.20;42.10
3298;DHT22;1661;53.572;10.174;2024-03-17T13:24:51;19.30;42.20
3298;DHT22;1661;53.572;10.174;2024-03-17T13:27:18;19.40;41.60
3298;DHT22;1661;53.572;10.174;2024-03-17T13:29:48;19.50;39.80
3298;DHT22;1661;53.572;10.174;2024-03-17T13:32:15;19.20;41.30
3298;DHT22;1661;53.572;10.174;2024-03-17T13:34:43;19.20;43.30
3298;DHT22;1661;53.572;10.174;2024-03-17T13:37:09;19.00;43.20
3298;DHT22;1661;53.572;10.174;2024-03-17T13:39:38;19.10;42.70
3298;DHT22;1661;53.572;10.174;2024-03-17T13:42:05;19.30;39.70
3298;DHT22;1661;53.572;10.174;2024-03-17T13:44:33;19.20;39.10
3298;DHT22;1661;53.572;10.174;2024-03-17T13:47:00;18.90;38.80
3298;DHT22;1661;53.572;10.174;2024-03-17T13:49:28;18.70;42.30
3298;DHT22;1661;53.572;10.174;2024-03-17T13:51:55;18.60;41.80
3298;DHT22;1661;53.572;10.174;2024-03-17T13:54:22;18.40;43.80
3298;DHT22;1661;53.572;10.174;2024-03-17T13:56:50;18.20;44.50
3298;DHT22;1661;53.572;10.174;2024-03-17T13:59:17;18.30;41.00
3298;DHT22;1661;53.572;10.174;2024-03-17T14:01:44;18.20;40.80
3298;DHT22;1661;53.572;10.174;2024-03-17T14:04:13;18.30;43.30
3298;DHT22;1661;53.572;10.174;2024-03-17T14:06:41;18.40;43.70
3298;DHT22;1661;53.572;10.174;2024-03-17T14:09:08;18.40;42.10
3298;DHT22;1661;53.572;10.174;2024-03-17T14:11:34;18.50;45.70
3298;DHT22;1661;53.572;10.174;2024-03-17T14:14:02;18.40;45.60
3298;DHT22;1661;53.572;10.174;2024-03-17T14:16:30;18.40;45.80
3298;DHT22;1661;53.572;10.174;2024-03-17T14:18:58;18.40;44.60
3298;DHT22;1661;53.572;10.174;2024-03-17T14:21:25;18.50;43.50
3298;DHT22;1661;53.572;10.174;2024-03-17T14:23:52;18.50;45.90
3298;DHT22;1661;53.572;10.174;2024-03-17T14:26:18;18.50;43.40
3298;DHT22;1661;53.572;10.174;2024-03-17T14:28:45;18.40;47.70
3298;DHT22;1661;53.572;10.174;2024-03-17T14:31:14;18.30;46.10
3298;DHT22;1661;53.572;10.174;2024-03-17T14:33:40;18.10;46.60
3298;DHT22;1661;53.572;10.174;2024-03-17T14:36:07;18.00;50.00
3298;DHT22;1661;53.572;10.174;2024-03-17T14:38:34;17.80;52.70
3298;DHT22;1661;53.572;10.174;2024-03-17T14:41:01;17.40;47.20
3298;DHT22;1661;53.572;10.174;2024-03-17T14:43:30;17.20;50.10
3298;DHT22;1661;53.572;10.174;2024-03-17T14:45:56;17.00;47.90
3298;DHT22;1661;53.572;10.174;2024-03-17T14:48:25;16.70;51.10
3298;DHT22;1661;53.572;10.174;2024-03-17T14:50:51;16.40;52.30
3298;DHT22;1661;53.572;10.174;2024-03-17T14:53:18;16.20;49.40
3298;DHT22;1661;53.572;10.174;2024-03-17T14:55:45;16.10;52.10
3298;DHT22;1661;53.572;10.174;2024-03-17T14:58:13;16.10;56.10
3298;DHT22;1661;53.572;10.174;2024-03-17T15:00:41;16.10;54.30
3298;DHT22;1661;53.572;10.174;2024-03-17T15:03:07;15.90;51.10
3298;DHT22;1661;53.572;10.174;2024-03-17T15:05:35;15.80;57.80
3298;DHT22;1661;53.572;10.174;2024-03-17T15:08:02;15.60;60.20
3298;DHT22;1661;53.572;10.174;2024-03-17T15:10:29;15.50;54.70
3298;DHT22;1661;53.572;10.174;2024-03-17T15:12:56;15.40;51.70
3298;DHT22;1661;53.572;10.174;2024-03-17T15:15:23;15.40;56.30
3298;DHT22;1661;53.572;10.174;2024-03-17T15:17:49;15.40;50.30
3298;DHT22;1661;53.572;10.174;2024-03-17T15:20:16;15.30;50.40
3298;DHT22;1661;53.572;10.174;2024-03-17T15:22:47;15.30;55.70
3298;DHT22;1661;53.572;10.174;2024-03-17T15:25:17;15.50;55.00
3298;DHT22;1661;53.572;10.174;2024-03-17T15:27:45;15.30;49.00
3298;DHT22;1661;53.572;10.174;2024-03-17T15:30:13;15.10;47.60
3298;DHT22;1661;53.572;10.174;2024-03-17T15:32:44;15.00;50.50
3298;DHT22;1661;53.572;10.174;2024-03-17T15:35:10;14.90;52.80
3298;DHT22;1661;53.572;10.174;2024-03-17T15:37:38;14.80;53.20
3298;DHT22;1661;53.572;10.174;2024-03-17T15:40:07;14.70;51.10
3298;DHT22;1661;53.572;10.174;2024-03-17T15:42:39;14.70;54.10
3298;DHT22;1661;53.572;10.174;2024-03-17T15:45:06;14.70;55.10
3298;DHT22;1661;53.572;10.174;2024-03-17T15:47:33;14.60;55.80
3298;DHT22;1661;53.572;10.174;2024-03-17T15:50:00;14.70;53.80
3298;DHT22;1661;53.572;10.174;2024-03-17T15:52:29;14.60;54.20
3298;DHT22;1661;53.572;10.174;2024-03-17T15:54:56;14.40;50.60
3298;DHT22;1661;53.572;10.174;2024-03-17T15:57:26;14.30;50.30
3298;DHT22;1661;53.572;10.174;2024-03-17T15:59:58;14.00;48.80
3298;DHT22;1661;53.572;10.174;2024-03-17T16:02:25;13.70;53.20